createdAt,value
2023-02-19T00:01:48.655Z,19.23
2023-02-19T00:04:22.385Z,20.58
2023-02-19T00:06:50.551Z,18.85
2023-02-19T00:09:19.549Z,19.70
2023-02-19T00:11:47.942Z,20.52
2023-02-19T00:14:17.519Z,19.37
2023-02-19T00:16:45.765Z,20.45
2023-02-19T00:19:15.943Z,19.67
2023-02-19T00:21:43.583Z,19.37
2023-02-19T00:24:12.849Z,18.98
2023-02-19T00:26:41.729Z,20.40
2023-02-19T00:29:14.192Z,18.65
2023-02-19T00:31:43.177Z,19.85
2023-02-19T00:34:11.812Z,19.85
2023-02-19T00:36:40.591Z,19.33
2023-02-19T00:39:08.913Z,18.80
2023-02-19T00:41:36.375Z,19.65
2023-02-19T00:44:06.321Z,19.23
2023-02-19T00:46:35.113Z,18.95
2023-02-19T00:49:05.448Z,19.37
2023-02-19T00:51:36.664Z,18.93
2023-02-19T00:54:05.883Z,19.98
2023-02-19T00:56:33.772Z,19.40
2023-02-19T00:59:01.888Z,19.50
2023-02-19T01:01:29.714Z,19.15
2023-02-19T01:03:57.406Z,19.53
2023-02-19T01:06:24.989Z,19.58
2023-02-19T01:08:53.154Z,19.67
2023-02-19T01:11:20.757Z,19.60
2023-02-19T01:13:48.472Z,19.45
2023-02-19T01:16:21.494Z,18.97
2023-02-19T01:18:49.131Z,19.83
2023-02-19T01:21:23.869Z,18.73
2023-02-19T01:23:52.424Z,18.65
2023-02-19T01:26:31.094Z,18.83
2023-02-19T01:29:02.361Z,18.77
2023-02-19T01:31:30.972Z,19.40
2023-02-19T01:34:00.938Z,18.45
2023-02-19T01:36:29.599Z,19.10
2023-02-19T01:38:59.864Z,18.83
2023-02-19T01:41:27.766Z,17.83
2023-02-19T01:44:00.801Z,18.83
2023-02-19T01:46:31.009Z,17.98
2023-02-19T01:49:10.831Z,18.52
2023-02-19T01:51:42.033Z,18.85
2023-02-19T01:54:10.468Z,18.33
2023-02-19T01:56:39.889Z,17.73
2023-02-19T01:59:08.608Z,18.10
2023-02-19T02:01:38.759Z,19.67
2023-02-19T02:04:11.001Z,18.83
2023-02-19T02:06:45.058Z,19.13
2023-02-19T02:09:31.598Z,19.12
2023-02-19T02:11:59.520Z,18.58
2023-02-19T02:14:29.921Z,18.37
2023-02-19T02:17:16.304Z,19.62
2023-02-19T02:20:14.770Z,18.43
2023-02-19T02:22:51.342Z,17.40
2023-02-19T02:25:37.359Z,18.60
2023-02-19T02:28:41.522Z,19.52
2023-02-19T02:31:23.323Z,19.87
2023-02-19T02:33:58.172Z,19.90
2023-02-19T02:36:36.056Z,21.02
2023-02-19T02:39:07.243Z,20.48
2023-02-19T02:41:42.619Z,20.02
2023-02-19T02:44:11.124Z,19.85
2023-02-19T02:46:41.727Z,18.53
2023-02-19T02:49:17.491Z,18.08
2023-02-19T02:51:47.933Z,19.30
2023-02-19T02:54:39.840Z,18.73
2023-02-19T02:57:09.402Z,19.65
2023-02-19T02:59:39.523Z,17.93
2023-02-19T03:02:15.003Z,17.98
2023-02-19T03:05:08.124Z,19.87
2023-02-19T03:07:43.951Z,19.75
2023-02-19T03:10:16.043Z,18.87
2023-02-19T03:13:03.442Z,18.07
2023-02-19T03:15:55.604Z,18.37
2023-02-19T03:18:42.366Z,17.02
2023-02-19T03:21:10.560Z,18.70
2023-02-19T03:23:58.118Z,16.45
2023-02-19T03:26:26.643Z,17.33
2023-02-19T03:29:13.827Z,18.65
2023-02-19T03:31:43.780Z,16.98
2023-02-19T03:34:15.943Z,17.00
2023-02-19T03:36:52.800Z,18.20
2023-02-19T03:39:22.651Z,17.40
2023-02-19T03:42:39.087Z,17.75
2023-02-19T03:45:13.054Z,16.83
2023-02-19T03:48:00.299Z,15.93
2023-02-19T03:50:30.721Z,15.82
2023-02-19T03:53:14.259Z,16.10
2023-02-19T03:56:30.497Z,16.40
2023-02-19T03:59:21.232Z,15.52
2023-02-19T04:02:03.046Z,15.63
2023-02-19T04:04:36.941Z,15.10
2023-02-19T04:07:04.747Z,15.00
2023-02-19T04:09:44.650Z,16.65
2023-02-19T04:12:13.355Z,15.93
2023-02-19T04:14:46.581Z,14.77
2023-02-19T04:17:24.816Z,15.55
2023-02-19T04:19:53.380Z,15.57
2023-02-19T04:22:22.228Z,14.98
2023-02-19T04:24:52.371Z,14.52
2023-02-19T04:27:20.486Z,13.98
2023-02-19T04:29:48.097Z,14.77
2023-02-19T04:32:15.721Z,14.10
2023-02-19T04:34:43.580Z,14.05
2023-02-19T04:37:11.393Z,14.02
2023-02-19T04:39:39.684Z,14.63
2023-02-19T04:42:07.457Z,13.65
2023-02-19T04:44:35.022Z,14.87
2023-02-19T04:47:02.647Z,14.15
2023-02-19T04:49:30.550Z,13.27
2023-02-19T04:51:58.220Z,13.27
2023-02-19T04:54:25.779Z,13.27
2023-02-19T04:56:53.638Z,11.70
2023-02-19T04:59:21.749Z,12.45
2023-02-19T05:01:49.228Z,11.40
2023-02-19T05:04:17.141Z,12.90
2023-02-19T05:06:44.740Z,11.88
2023-02-19T05:09:12.383Z,12.20
2023-02-19T05:11:40.344Z,12.07
2023-02-19T05:14:07.869Z,11.68
2023-02-19T05:16:35.366Z,11.75
2023-02-19T05:19:03.115Z,11.95
2023-02-19T05:21:30.564Z,11.80
2023-02-19T05:23:58.098Z,11.75
2023-02-19T05:26:26.775Z,11.25
2023-02-19T05:28:54.446Z,11.07
2023-02-19T05:31:22.406Z,10.93
2023-02-19T05:33:52.798Z,12.03
2023-02-19T05:36:24.123Z,11.38
2023-02-19T05:38:54.095Z,10.75
2023-02-19T05:41:27.282Z,11.55
2023-02-19T05:43:55.954Z,10.70
2023-02-19T05:46:25.883Z,10.53
2023-02-19T05:48:54.175Z,9.65
2023-02-19T05:51:23.790Z,10.68
2023-02-19T05:53:51.581Z,11.00
2023-02-19T05:56:39.380Z,11.05
2023-02-19T05:59:14.587Z,11.23
2023-02-19T06:01:42.138Z,10.45
2023-02-19T06:04:14.094Z,9.65
2023-02-19T06:06:42.482Z,10.48
2023-02-19T06:09:10.629Z,10.43
2023-02-19T06:11:38.566Z,10.80
2023-02-19T06:14:06.465Z,10.38
2023-02-19T06:16:34.485Z,10.25
2023-02-19T06:19:03.898Z,10.38
2023-02-19T06:21:31.584Z,10.63
2023-02-19T06:23:59.489Z,9.47
2023-02-19T06:26:27.141Z,10.40
2023-02-19T06:28:54.849Z,8.63
2023-02-19T06:31:23.557Z,9.55
2023-02-19T06:33:51.312Z,10.95
2023-02-19T06:36:20.671Z,8.73
2023-02-19T06:38:48.594Z,10.35
2023-02-19T06:41:16.645Z,9.95
2023-02-19T06:43:44.353Z,8.30
2023-02-19T06:46:12.903Z,8.70
2023-02-19T06:48:41.568Z,10.43
2023-02-19T06:51:15.373Z,9.43
2023-02-19T06:53:43.172Z,8.82
2023-02-19T06:56:28.396Z,8.98
2023-02-19T06:59:01.945Z,8.13
2023-02-19T07:01:31.323Z,9.00
2023-02-19T07:03:59.659Z,8.80
2023-02-19T07:06:27.681Z,9.20
2023-02-19T07:08:58.247Z,9.40
2023-02-19T07:11:29.919Z,9.15
2023-02-19T07:13:58.637Z,9.50
2023-02-19T07:16:26.921Z,9.52
2023-02-19T07:18:57.100Z,9.50
2023-02-19T07:21:26.589Z,9.95
2023-02-19T07:23:54.472Z,10.73
2023-02-19T07:26:22.380Z,9.53
2023-02-19T07:28:51.081Z,8.95
2023-02-19T07:31:20.620Z,9.07
2023-02-19T07:33:48.454Z,8.90
2023-02-19T07:36:17.564Z,9.23
2023-02-19T07:38:45.465Z,9.10
2023-02-19T07:41:13.793Z,8.18
2023-02-19T07:43:41.530Z,8.85
2023-02-19T07:46:12.214Z,9.38
2023-02-19T07:48:41.150Z,9.40
2023-02-19T07:51:13.134Z,8.90
2023-02-19T07:53:40.933Z,8.60
2023-02-19T07:56:10.320Z,7.70
2023-02-19T07:58:37.849Z,7.45
2023-02-19T08:01:15.926Z,6.37
2023-02-19T08:03:44.509Z,6.53
2023-02-19T08:06:12.701Z,6.70
2023-02-19T08:08:40.532Z,5.80
2023-02-19T08:11:28.697Z,5.97
2023-02-19T08:13:56.198Z,5.70
2023-02-19T08:16:40.676Z,5.33
2023-02-19T08:19:10.047Z,5.53
2023-02-19T08:21:37.895Z,9.68
2023-02-19T08:24:05.806Z,10.50
2023-02-19T08:26:33.919Z,9.60
2023-02-19T08:29:01.664Z,6.47
2023-02-19T08:31:29.503Z,5.30
2023-02-19T08:33:57.377Z,5.15
2023-02-19T08:36:25.202Z,3.40
2023-02-19T08:38:53.020Z,3.33
2023-02-19T08:41:23.109Z,4.10
2023-02-19T08:43:50.977Z,4.93
2023-02-19T08:46:18.598Z,4.97
2023-02-19T08:48:46.101Z,5.00
2023-02-19T08:51:14.370Z,4.10
2023-02-19T08:53:42.267Z,4.93
2023-02-19T08:56:12.368Z,5.70
2023-02-19T08:58:40.458Z,9.10
2023-02-19T09:01:13.412Z,6.47
2023-02-19T09:03:41.800Z,7.62
2023-02-19T09:06:14.184Z,8.63
2023-02-19T09:08:41.952Z,10.57
2023-02-19T09:11:10.048Z,9.32
2023-02-19T09:13:37.946Z,11.40
2023-02-19T09:16:06.202Z,9.57
2023-02-19T09:18:33.816Z,9.87
2023-02-19T09:21:04.612Z,10.57
2023-02-19T09:23:34.388Z,9.45
2023-02-19T09:26:04.054Z,10.23
2023-02-19T09:28:31.800Z,9.55
2023-02-19T09:31:07.314Z,10.00
2023-02-19T09:33:35.384Z,10.45
2023-02-19T09:36:04.116Z,9.85
2023-02-19T09:38:31.780Z,10.57
2023-02-19T09:41:00.224Z,10.68
2023-02-19T09:43:28.726Z,11.00
2023-02-19T09:46:51.856Z,10.95
2023-02-19T09:49:28.517Z,10.73
2023-02-19T09:52:10.116Z,13.10
2023-02-19T09:54:39.206Z,12.02
2023-02-19T09:57:13.100Z,13.63
2023-02-19T10:00:05.379Z,17.77
2023-02-19T10:02:33.384Z,15.73
2023-02-19T10:05:01.841Z,13.88
2023-02-19T10:07:43.836Z,14.80
2023-02-19T10:10:17.933Z,11.83
2023-02-19T10:12:52.636Z,13.73
2023-02-19T10:15:31.086Z,12.52
2023-02-19T10:17:58.874Z,12.13
2023-02-19T10:20:27.965Z,12.55
2023-02-19T10:23:07.083Z,11.43
2023-02-19T10:25:35.369Z,12.05
2023-02-19T10:28:03.581Z,12.25
2023-02-19T10:30:34.892Z,11.70
2023-02-19T10:33:14.954Z,11.45
2023-02-19T10:35:59.924Z,12.70
2023-02-19T10:38:33.783Z,14.10
2023-02-19T10:41:14.053Z,13.73
2023-02-19T10:43:44.667Z,12.48
2023-02-19T10:46:25.895Z,12.60
2023-02-19T10:48:56.117Z,12.27
2023-02-19T10:51:31.893Z,12.77
2023-02-19T10:54:27.188Z,11.12
2023-02-19T10:56:54.702Z,12.88
2023-02-19T10:59:25.478Z,11.57
2023-02-19T11:01:59.733Z,12.73
2023-02-19T11:04:34.029Z,11.80
2023-02-19T11:07:09.462Z,13.43
2023-02-19T11:09:43.017Z,14.68
2023-02-19T11:12:11.960Z,13.25
2023-02-19T11:14:43.230Z,12.57
2023-02-19T11:17:31.725Z,12.68
2023-02-19T11:20:14.884Z,17.67
2023-02-19T11:22:46.922Z,12.77
2023-02-19T11:25:15.142Z,12.35
2023-02-19T11:28:07.010Z,12.67
2023-02-19T11:30:41.022Z,14.85
2023-02-19T11:33:21.884Z,13.02
2023-02-19T11:35:51.955Z,13.48
2023-02-19T11:38:21.555Z,12.15
2023-02-19T11:41:14.738Z,11.63
2023-02-19T11:43:57.922Z,11.23
2023-02-19T11:46:48.173Z,11.10
2023-02-19T11:49:31.123Z,10.38
2023-02-19T11:52:04.838Z,10.82
2023-02-19T11:54:56.088Z,11.17
2023-02-19T11:57:42.519Z,10.93
2023-02-19T12:00:27.193Z,11.05
2023-02-19T12:03:18.599Z,10.95
2023-02-19T12:05:50.106Z,9.90
2023-02-19T12:08:30.565Z,10.20
2023-02-19T12:11:25.182Z,10.23
2023-02-19T12:14:11.477Z,10.95
2023-02-19T12:16:52.466Z,10.95
2023-02-19T12:19:24.055Z,10.93
2023-02-19T12:22:09.900Z,9.93
2023-02-19T12:24:59.903Z,9.75
2023-02-19T12:27:43.402Z,9.15
2023-02-19T12:30:32.741Z,10.30
2023-02-19T12:33:00.313Z,11.40
2023-02-19T12:35:33.589Z,11.00
2023-02-19T12:38:04.032Z,12.13
2023-02-19T12:40:57.281Z,11.27
2023-02-19T12:43:25.162Z,9.88
2023-02-19T12:46:02.051Z,12.35
2023-02-19T12:48:43.094Z,11.17
2023-02-19T12:51:18.072Z,11.18
2023-02-19T12:53:53.197Z,11.07
2023-02-19T12:56:25.389Z,10.55
2023-02-19T12:58:56.932Z,10.90
2023-02-19T13:01:34.728Z,11.03
2023-02-19T13:04:41.879Z,10.27
2023-02-19T13:07:14.781Z,10.88
2023-02-19T13:09:53.165Z,10.45
2023-02-19T13:12:24.667Z,11.82
2023-02-19T13:14:57.596Z,11.80
2023-02-19T13:17:41.748Z,11.68
2023-02-19T13:20:31.620Z,10.23
2023-02-19T13:23:28.369Z,11.10
2023-02-19T13:26:08.414Z,10.30
2023-02-19T13:28:49.375Z,10.60
2023-02-19T13:31:44.799Z,10.30
2023-02-19T13:34:15.442Z,11.12
2023-02-19T13:36:43.401Z,11.05
2023-02-19T13:41:50.961Z,10.57
2023-02-19T13:44:20.889Z,10.43
2023-02-19T13:46:50.489Z,10.05
2023-02-19T13:49:33.989Z,10.60
2023-02-19T13:52:30.717Z,10.60
2023-02-19T13:55:36.021Z,12.10
2023-02-19T13:58:41.922Z,11.63
2023-02-19T14:01:11.871Z,10.35
2023-02-19T14:03:42.922Z,10.45
2023-02-19T14:06:10.751Z,10.20
2023-02-19T14:08:58.213Z,10.50
2023-02-19T14:11:41.259Z,10.30
2023-02-19T14:14:43.578Z,9.43
2023-02-19T14:17:17.739Z,9.98
2023-02-19T14:19:49.574Z,10.75
2023-02-19T14:22:46.680Z,11.07
2023-02-19T14:25:33.513Z,11.12
2023-02-19T14:28:10.765Z,11.55
2023-02-19T14:30:56.036Z,10.90
2023-02-19T14:33:26.270Z,10.32
2023-02-19T14:35:58.373Z,10.60
2023-02-19T14:39:15.905Z,9.90
2023-02-19T14:41:49.207Z,9.60
2023-02-19T14:44:25.042Z,10.13
2023-02-19T14:47:13.929Z,10.07
2023-02-19T14:49:45.782Z,9.80
2023-02-19T14:52:28.343Z,9.85
2023-02-19T14:55:13.575Z,10.90
2023-02-19T14:57:43.843Z,10.70
2023-02-19T15:00:23.020Z,10.52
2023-02-19T15:02:51.830Z,11.00
2023-02-19T15:05:25.270Z,9.68
2023-02-19T15:07:54.460Z,9.35
2023-02-19T15:10:22.579Z,10.60
2023-02-19T15:12:53.120Z,11.32
2023-02-19T15:15:23.347Z,9.30
2023-02-19T15:17:52.368Z,9.75
2023-02-19T15:20:23.041Z,9.70
2023-02-19T15:22:51.965Z,9.20
2023-02-19T15:25:21.887Z,9.93
2023-02-19T15:27:50.461Z,9.90
2023-02-19T15:30:28.553Z,10.15
2023-02-19T15:32:58.550Z,10.43
2023-02-19T15:35:28.073Z,10.48
2023-02-19T15:37:56.340Z,9.63
2023-02-19T15:40:30.003Z,9.73
2023-02-19T15:42:59.041Z,10.38
2023-02-19T15:45:31.800Z,10.77
2023-02-19T15:48:07.489Z,10.02
2023-02-19T15:50:39.316Z,9.48
2023-02-19T15:53:10.235Z,9.83
2023-02-19T15:56:14.942Z,8.32
2023-02-19T15:58:52.234Z,9.18
2023-02-19T16:01:27.397Z,9.02
2023-02-19T16:03:56.297Z,9.43
2023-02-19T16:06:25.849Z,9.57
2023-02-19T16:09:01.991Z,9.55
2023-02-19T16:11:43.276Z,9.80
2023-02-19T16:14:32.112Z,9.90
2023-02-19T16:17:07.635Z,9.63
2023-02-19T16:19:50.966Z,9.27
2023-02-19T16:22:22.112Z,8.35
2023-02-19T16:24:52.962Z,9.95
2023-02-19T16:27:33.214Z,9.73
2023-02-19T16:30:05.987Z,9.23
2023-02-19T16:32:39.382Z,10.80
2023-02-19T16:35:42.644Z,9.20
2023-02-19T16:38:15.481Z,9.48
2023-02-19T16:40:43.294Z,9.30
2023-02-19T16:43:13.997Z,7.05
2023-02-19T16:45:44.965Z,5.87
2023-02-19T16:48:13.764Z,3.97
2023-02-19T16:50:41.623Z,1.60
2023-02-19T16:53:20.336Z,1.37
2023-02-19T16:55:48.737Z,0.95
2023-02-19T16:58:18.030Z,1.40
2023-02-19T17:00:46.719Z,1.45
2023-02-19T17:03:19.285Z,0.77
2023-02-19T17:05:47.324Z,0.68
2023-02-19T17:08:34.153Z,1.17
2023-02-19T17:11:05.787Z,1.73
2023-02-19T17:13:33.994Z,1.40
2023-02-19T17:16:01.984Z,1.45
2023-02-19T17:18:29.964Z,1.80
2023-02-19T17:21:16.967Z,1.30
2023-02-19T17:23:44.820Z,1.40
2023-02-19T17:26:17.922Z,1.37
2023-02-19T17:28:46.123Z,1.20
2023-02-19T17:31:17.086Z,1.05
2023-02-19T17:33:44.952Z,1.17
2023-02-19T17:36:25.219Z,1.60
2023-02-19T17:38:54.462Z,1.80
2023-02-19T17:41:22.232Z,1.33
2023-02-19T17:43:53.457Z,1.40
2023-02-19T17:46:24.385Z,1.73
2023-02-19T17:48:51.944Z,2.10
2023-02-19T17:51:20.388Z,2.37
2023-02-19T17:53:48.944Z,1.27
2023-02-19T17:56:19.181Z,1.50
2023-02-19T17:58:47.305Z,1.10
2023-02-19T18:01:16.142Z,1.40
2023-02-19T18:03:44.424Z,1.27
2023-02-19T18:06:12.551Z,1.23
2023-02-19T18:08:42.164Z,1.98
2023-02-19T18:11:10.441Z,1.60
2023-02-19T18:13:39.162Z,1.20
2023-02-19T18:16:08.636Z,0.88
2023-02-19T18:18:37.472Z,1.00
2023-02-19T18:21:09.427Z,0.93
2023-02-19T18:23:38.436Z,0.80
2023-02-19T18:26:09.019Z,1.00
2023-02-19T18:28:37.949Z,0.82
2023-02-19T18:31:05.974Z,0.98
2023-02-19T18:33:34.663Z,0.80
2023-02-19T18:36:03.487Z,0.70
2023-02-19T18:38:31.730Z,0.87
2023-02-19T18:40:59.991Z,0.57
2023-02-19T18:43:27.737Z,0.80
2023-02-19T18:45:55.740Z,0.60
2023-02-19T18:48:23.752Z,0.60
2023-02-19T18:50:52.061Z,0.80
2023-02-19T18:53:20.983Z,0.80
2023-02-19T18:55:48.775Z,0.70
2023-02-19T18:58:17.152Z,1.08
2023-02-19T19:00:45.013Z,0.80
2023-02-19T19:03:12.918Z,0.50
2023-02-19T19:05:41.207Z,0.62
2023-02-19T19:08:09.016Z,0.80
2023-02-19T19:10:36.557Z,0.70
2023-02-19T19:13:04.892Z,1.75
2023-02-19T19:15:32.792Z,1.50
2023-02-19T19:18:00.819Z,1.12
2023-02-19T19:20:29.152Z,0.80
2023-02-19T19:22:56.672Z,0.70
2023-02-19T19:25:24.512Z,0.70
2023-02-19T19:27:55.409Z,0.73
2023-02-19T19:30:23.632Z,0.68
2023-02-19T19:32:52.613Z,0.77
2023-02-19T19:35:21.190Z,0.50
2023-02-19T19:37:49.703Z,0.50
2023-02-19T19:40:18.363Z,0.50
2023-02-19T19:42:46.828Z,0.30
2023-02-19T19:45:14.729Z,0.98
2023-02-19T19:47:42.762Z,1.02
2023-02-19T19:50:14.457Z,1.42
2023-02-19T19:52:42.217Z,0.97
2023-02-19T19:55:10.538Z,1.05
2023-02-19T19:57:40.760Z,1.52
2023-02-19T20:00:14.174Z,1.23
2023-02-19T20:02:42.753Z,1.30
2023-02-19T20:05:11.980Z,0.83
2023-02-19T20:07:40.116Z,1.45
2023-02-19T20:10:08.679Z,0.88
2023-02-19T20:12:36.666Z,0.45
2023-02-19T20:15:04.820Z,0.50
2023-02-19T20:17:32.778Z,0.40
2023-02-19T20:20:00.867Z,0.50
2023-02-19T20:22:28.707Z,0.40
2023-02-19T20:24:56.998Z,0.60
2023-02-19T20:27:25.013Z,0.40
2023-02-19T20:29:54.072Z,0.40
2023-02-19T20:32:22.304Z,0.50
2023-02-19T20:34:50.021Z,0.98
2023-02-19T20:37:17.850Z,0.90
2023-02-19T20:39:47.102Z,0.60
2023-02-19T20:42:16.985Z,0.50
2023-02-19T20:44:45.212Z,0.82
2023-02-19T20:47:12.943Z,0.93
2023-02-19T20:49:45.702Z,0.45
2023-02-19T20:52:20.778Z,0.40
2023-02-19T20:54:48.260Z,1.10
2023-02-19T20:57:16.620Z,1.20
2023-02-19T20:59:44.418Z,0.30
2023-02-19T21:02:18.577Z,0.60
2023-02-19T21:04:46.817Z,0.40
2023-02-19T21:07:14.836Z,0.40
2023-02-19T21:09:42.684Z,0.70
2023-02-19T21:12:10.823Z,0.57
2023-02-19T21:14:38.636Z,0.60
2023-02-19T21:17:06.638Z,0.40
2023-02-19T21:19:34.731Z,0.43
2023-02-19T21:22:02.541Z,0.55
2023-02-19T21:24:32.708Z,0.45
2023-02-19T21:27:00.821Z,0.40
2023-02-19T21:29:28.477Z,0.52
2023-02-19T21:31:56.999Z,0.80
2023-02-19T21:34:27.070Z,0.45
2023-02-19T21:36:55.424Z,0.68
2023-02-19T21:39:24.971Z,0.50
2023-02-19T21:41:52.792Z,0.60
2023-02-19T21:44:21.218Z,0.40
2023-02-19T21:46:48.727Z,0.80
2023-02-19T21:49:17.164Z,0.50
2023-02-19T21:51:47.874Z,0.50
2023-02-19T21:54:21.734Z,1.02
2023-02-19T21:56:49.189Z,0.80
2023-02-19T21:59:16.997Z,0.70
2023-02-19T22:01:45.273Z,0.80
2023-02-19T22:04:17.087Z,0.60
2023-02-19T22:06:44.882Z,0.88
2023-02-19T22:09:13.592Z,0.90
2023-02-19T22:11:41.386Z,0.80
2023-02-19T22:14:09.087Z,1.02
2023-02-19T22:16:36.944Z,0.85
2023-02-19T22:19:04.788Z,0.95
2023-02-19T22:21:32.894Z,0.90
2023-02-19T22:24:02.291Z,0.98
2023-02-19T22:26:32.552Z,0.70
2023-02-19T22:29:05.871Z,1.00
2023-02-19T22:31:33.748Z,1.00
2023-02-19T22:34:01.456Z,1.00
2023-02-19T22:36:31.190Z,1.00
2023-02-19T22:39:00.637Z,1.02
2023-02-19T22:41:28.549Z,1.00
2023-02-19T22:43:57.192Z,1.20
2023-02-19T22:46:27.641Z,1.40
2023-02-19T22:48:55.237Z,0.82
2023-02-19T22:51:24.105Z,0.88
2023-02-19T22:53:58.120Z,1.25
2023-02-19T22:56:27.583Z,0.95
2023-02-19T22:58:57.112Z,1.43
2023-02-19T23:01:25.187Z,1.20
2023-02-19T23:03:58.463Z,1.20
2023-02-19T23:06:28.701Z,1.20
2023-02-19T23:08:58.395Z,1.20
2023-02-19T23:11:31.126Z,1.00
2023-02-19T23:13:58.912Z,1.50
2023-02-19T23:16:26.829Z,0.93
2023-02-19T23:18:54.775Z,1.50
2023-02-19T23:21:22.880Z,1.10
2023-02-19T23:23:50.988Z,1.50
2023-02-19T23:26:19.039Z,1.27
2023-02-19T23:28:47.093Z,1.17
2023-02-19T23:31:15.712Z,1.52
2023-02-19T23:33:43.791Z,1.50
2023-02-19T23:36:13.318Z,1.20
2023-02-19T23:38:44.327Z,1.55
2023-02-19T23:41:13.165Z,1.23
2023-02-19T23:43:41.593Z,1.70
2023-02-19T23:46:09.920Z,0.85
2023-02-19T23:48:37.808Z,1.63
2023-02-19T23:51:05.772Z,1.30
2023-02-19T23:53:33.247Z,1.20
2023-02-19T23:56:00.770Z,1.08
2023-02-19T23:58:28.531Z,1.40
